Time;durP1;ratioP1;P1;durP2;ratioP2;P2;SDS_P1;SDS_P2;PMS_P1;PMS_P2;Temp;Humidity;BMP_temperature;BMP_pressure;BME280_temperature;BME280_humidity;BME280_pressure;Samples;Min_cycle;Max_cycle;Signal;HPM_P1;HPM_P2
2021/11/04 00:00:31;;;;;;;44.60;33.87;;;;;;;6.37;86.81;100734.69;1697264;82;21513;-66
2021/11/04 00:02:58;;;;;;;48.53;34.90;;;;;;;6.37;86.74;100738.66;1677856;83;20980;-66
2021/11/04 00:05:25;;;;;;;47.60;37.65;;;;;;;6.38;86.55;100742.95;1670880;84;21082;-67
2021/11/04 00:07:56;;;;;;;44.73;36.87;;;;;;;6.36;86.31;100736.48;1668246;84;21002;-66
2021/11/04 00:10:21;;;;;;;46.67;37.07;;;;;;;6.32;86.37;100742.24;1656542;85;21030;-66
2021/11/04 00:12:48;;;;;;;46.80;37.42;;;;;;;6.25;86.85;100747.29;1641793;82;21086;-66
2021/11/04 00:15:15;;;;;;;49.33;36.40;;;;;;;6.27;86.70;100747.97;1663482;85;21003;-67
2021/11/04 00:17:44;;;;;;;46.33;35.90;;;;;;;6.28;86.65;100744.36;1661173;85;21045;-66
2021/11/04 00:20:13;;;;;;;50.75;39.20;;;;;;;6.30;86.47;100740.23;1663918;85;21089;-65
2021/11/04 00:22:39;;;;;;;52.67;40.43;;;;;;;6.29;86.28;100742.06;1658574;84;21079;-65
2021/11/04 00:25:06;;;;;;;53.70;39.63;;;;;;;6.25;86.31;100745.97;1654871;86;21312;-66
2021/11/04 00:27:34;;;;;;;54.00;41.43;;;;;;;6.23;86.34;100745.28;1693405;83;21122;-67
2021/11/04 00:30:01;;;;;;;58.53;42.13;;;;;;;6.24;86.29;100758.38;1687293;83;21097;-68
2021/11/04 00:32:27;;;;;;;50.00;38.03;;;;;;;6.29;85.97;100752.66;1695468;83;21101;-67
2021/11/04 00:34:53;;;;;;;44.77;35.88;;;;;;;6.30;85.68;100747.68;1683859;84;21548;-67
2021/11/04 00:37:19;;;;;;;47.62;37.90;;;;;;;6.28;85.81;100748.83;1673554;84;21041;-65
2021/11/04 00:39:45;;;;;;;50.05;39.65;;;;;;;6.22;86.06;100749.76;1686604;84;21477;-65
2021/11/04 00:42:11;;;;;;;56.15;41.80;;;;;;;6.14;86.00;100745.72;1684065;84;21696;-66
2021/11/04 00:44:37;;;;;;;50.85;38.73;;;;;;;6.08;86.19;100751.58;1686764;81;20932;-65
2021/11/04 00:47:03;;;;;;;50.23;37.58;;;;;;;6.07;86.15;100747.78;1729951;81;21558;-66
2021/11/04 00:49:30;;;;;;;49.43;37.13;;;;;;;6.11;85.92;100749.14;1729151;81;21545;-66
2021/11/04 00:51:56;;;;;;;49.70;34.58;;;;;;;6.15;85.59;100753.16;1737987;81;21548;-65
2021/11/04 00:54:23;;;;;;;47.70;36.77;;;;;;;6.13;85.44;100750.66;1723584;81;21107;-66
2021/11/04 00:56:48;;;;;;;42.38;33.53;;;;;;;6.12;85.60;100746.36;1709976;81;21061;-67
2021/11/04 00:59:15;;;;;;;46.85;35.85;;;;;;;6.12;85.78;100753.44;1695485;83;21035;-66
2021/11/04 01:01:41;;;;;;;;;;;;;;;6.06;85.77;100756.69;1679905;83;21109;-68
2021/11/04 01:04:09;;;;;;;41.08;33.25;;;;;;;5.99;85.79;100756.44;1699285;83;20178;-66
2021/11/04 01:06:36;;;;;;;53.77;34.03;;;;;;;5.90;86.17;100759.47;1697866;83;21049;-67
2021/11/04 01:09:02;;;;;;;48.23;36.42;;;;;;;5.95;86.20;100759.01;1699906;83;21134;-66
2021/11/04 01:11:30;;;;;;;44.10;33.97;;;;;;;5.99;85.72;100759.94;1696395;83;20990;-66
2021/11/04 01:13:57;;;;;;;43.73;32.85;;;;;;;5.98;85.49;100764.05;1679729;84;21057;-67
2021/11/04 01:16:23;;;;;;;42.50;34.10;;;;;;;5.98;85.83;100770.66;1671784;84;21124;-65
2021/11/04 01:18:50;;;;;;;43.83;33.27;;;;;;;5.98;86.86;100768.84;1663408;85;21071;-67
2021/11/04 01:21:16;;;;;;;43.30;35.13;;;;;;;5.45;87.43;100698.09;1678221;84;21018;-66
2021/11/04 01:23:42;;;;;;;42.95;34.05;;;;;;;6.00;86.89;100768.20;1674376;84;21060;-64
2021/11/04 01:26:09;;;;;;;45.48;34.43;;;;;;;6.05;86.15;100766.45;1683019;84;21129;-64
2021/11/04 01:28:35;;;;;;;43.30;33.75;;;;;;;6.05;85.83;100770.42;1658544;85;21099;-65
2021/11/04 01:31:02;;;;;;;48.33;37.33;;;;;;;6.04;85.76;100768.74;1648633;85;21018;-66
2021/11/04 01:33:30;;;;;;;48.97;38.20;;;;;;;5.98;85.87;100769.34;1682562;83;20977;-65
2021/11/04 01:35:56;;;;;;;44.38;32.42;;;;;;;5.94;86.04;100767.95;1719341;82;21139;-65
2021/11/04 01:38:23;;;;;;;41.35;32.90;;;;;;;5.95;86.22;100769.16;1720253;82;21484;-65
2021/11/04 01:40:50;;;;;;;39.27;31.73;;;;;;;6.04;86.12;100775.36;1717034;82;21045;-64
2021/11/04 01:43:18;;;;;;;39.63;31.67;;;;;;;6.11;86.03;100772.97;1699703;83;21072;-65
2021/11/04 01:45:49;;;;;;;40.83;29.53;;;;;;;6.15;85.94;100766.39;1700996;83;21037;-64
2021/11/04 01:48:17;;;;;;;36.77;30.80;;;;;;;6.20;86.10;100772.08;1678826;84;20993;-64
2021/11/04 01:50:43;;;;;;;43.97;35.63;;;;;;;6.19;86.17;100773.88;1699635;83;20997;-65
2021/11/04 01:53:10;;;;;;;36.93;31.43;;;;;;;6.18;86.03;100776.69;1698571;84;21030;-66
2021/11/04 01:55:38;;;;;;;37.20;29.07;;;;;;;6.18;85.60;100776.69;1676649;84;21021;-66
2021/11/04 01:58:04;;;;;;;33.87;29.27;;;;;;;6.21;85.58;100781.17;1678813;85;21070;-65
2021/11/04 02:00:33;;;;;;;36.08;28.55;;;;;;;6.27;85.65;100788.18;1680554;84;22037;-66
2021/11/04 02:03:20;;;;;;;37.97;29.13;;;;;;;6.31;85.53;100789.08;1684946;84;21588;-65
2021/11/04 02:06:21;;;;;;;33.60;27.73;;;;;;;6.30;85.43;100786.57;1679110;84;21101;-65
2021/11/04 02:09:17;;;;;;;39.43;29.40;;;;;;;6.24;86.09;100792.80;1689510;83;21166;-66
2021/11/04 02:11:51;;;;;;;41.17;27.23;;;;;;;6.23;86.48;100795.58;1682712;85;21069;-66
2021/11/04 02:14:26;;;;;;;41.10;29.70;;;;;;;6.30;86.57;100794.52;1663232;85;21046;-65
2021/11/04 02:16:55;;;;;;;27.70;24.70;;;;;;;6.41;86.10;100800.92;1688068;85;21000;-65
2021/11/04 02:19:47;;;;;;;38.10;27.80;;;;;;;6.49;85.75;100805.46;1666311;85;21034;-65
2021/11/04 02:22:25;;;;;;;34.03;28.00;;;;;;;6.53;85.56;100801.53;1694606;83;21038;-65
2021/11/04 02:25:19;;;;;;;37.47;28.93;;;;;;;6.52;85.28;100803.84;1687992;84;21016;-66
2021/11/04 02:27:50;;;;;;;34.70;26.50;;;;;;;6.43;85.16;100803.75;1691886;83;21021;-65
2021/11/04 02:30:18;;;;;;;35.63;26.60;;;;;;;6.35;85.73;100804.17;1673928;84;21101;-65
2021/11/04 02:32:45;;;;;;;34.73;28.03;;;;;;;6.38;85.91;100806.50;1694017;83;21037;-66
2021/11/04 02:35:13;;;;;;;33.10;26.47;;;;;;;6.38;85.89;100803.35;1701362;83;21002;-65
2021/11/04 02:37:40;;;;;;;30.73;26.47;;;;;;;6.40;85.79;100809.83;1703786;83;21089;-64
2021/11/04 02:40:07;;;;;;;35.55;28.07;;;;;;;6.40;85.88;100818.62;1705645;83;21045;-66
2021/11/04 02:42:36;;;;;;;36.80;27.00;;;;;;;6.42;85.91;100819.78;1701836;83;21237;-66
2021/11/04 02:45:04;;;;;;;34.17;27.93;;;;;;;6.43;85.93;100822.28;1704755;83;21490;-65
2021/11/04 02:47:35;;;;;;;28.97;24.70;;;;;;;6.38;86.31;100827.19;1707269;83;21006;-66
2021/11/04 02:50:02;;;;;;;27.03;23.27;;;;;;;6.42;86.67;100831.23;1705002;83;21110;-66
2021/11/04 02:52:30;;;;;;;31.77;25.43;;;;;;;6.50;86.49;100845.05;1713089;83;21077;-66
2021/11/04 02:55:04;;;;;;;34.25;24.35;;;;;;;6.52;86.50;100839.11;1707328;83;21036;-66
2021/11/04 02:57:32;;;;;;;32.40;26.13;;;;;;;6.54;86.63;100850.87;1704990;83;21022;-65
2021/11/04 02:59:58;;;;;;;28.53;23.43;;;;;;;6.57;86.37;100858.03;1706101;83;21027;-65
2021/11/04 03:02:25;;;;;;;31.97;25.68;;;;;;;6.43;86.25;100816.16;1705654;83;21024;-66
2021/11/04 03:04:51;;;;;;;32.13;25.27;;;;;;;6.64;86.24;100860.91;1705570;83;21006;-66
2021/11/04 03:07:17;;;;;;;28.47;25.40;;;;;;;6.59;86.54;100862.69;1705216;83;21562;-66
2021/11/04 03:09:43;;;;;;;28.45;23.92;;;;;;;6.60;86.62;100866.98;1706854;83;21217;-66
2021/11/04 03:12:10;;;;;;;25.70;21.73;;;;;;;6.67;86.69;100869.03;1698817;83;21037;-66
2021/11/04 03:14:38;;;;;;;27.03;22.93;;;;;;;6.70;86.86;100869.57;1673370;84;22306;-66
2021/11/04 03:17:06;;;;;;;32.10;23.87;;;;;;;6.72;86.84;100866.78;1643786;85;21116;-66
2021/11/04 03:19:33;;;;;;;29.60;23.13;;;;;;;6.69;87.01;100869.74;1641727;86;21515;-67
2021/11/04 03:22:01;;;;;;;24.77;22.03;;;;;;;6.70;87.00;100872.72;1673347;84;21520;-66
2021/11/04 03:24:27;;;;;;;27.43;22.87;;;;;;;6.76;86.85;100876.09;1694748;83;21583;-65
2021/11/04 03:27:01;;;;;;;28.00;22.70;;;;;;;6.76;86.80;100886.68;1681946;83;21024;-67
2021/11/04 03:29:34;;;;;;;27.13;21.67;;;;;;;6.78;86.73;100886.04;1715548;83;21031;-65
2021/11/04 03:32:04;;;;;;;29.53;24.10;;;;;;;6.79;86.70;100888.55;1694560;84;21076;-65
2021/11/04 03:34:32;;;;;;;28.50;22.93;;;;;;;6.78;86.66;100889.55;1699119;81;21051;-65
2021/11/04 03:36:59;;;;;;;28.30;25.13;;;;;;;6.75;86.75;100896.45;1690916;83;21156;-64
2021/11/04 03:39:26;;;;;;;29.20;25.00;;;;;;;6.71;86.81;100890.30;1701332;83;21087;-66
2021/11/04 03:41:56;;;;;;;27.27;24.13;;;;;;;6.67;87.21;100891.08;1690115;83;21049;-65
2021/11/04 03:44:24;;;;;;;29.47;24.33;;;;;;;6.70;87.03;100886.79;1700771;83;21533;-66
2021/11/04 03:46:52;;;;;;;33.37;23.03;;;;;;;6.71;86.92;100879.20;1719382;82;21079;-67
2021/11/04 03:49:21;;;;;;;24.13;20.37;;;;;;;6.70;87.19;100876.69;1704119;83;21047;-67
2021/11/04 03:51:50;;;;;;;25.43;22.10;;;;;;;6.69;87.37;100877.69;1701523;83;21014;-66
2021/11/04 03:54:22;;;;;;;25.67;22.93;;;;;;;6.68;87.44;100879.48;1699560;83;21538;-65
2021/11/04 03:56:50;;;;;;;27.57;22.47;;;;;;;6.65;87.66;100873.19;1711831;83;21006;-66
2021/11/04 03:59:16;;;;;;;25.13;22.17;;;;;;;6.69;87.20;100874.54;1746426;82;21100;-66
2021/11/04 04:01:43;;;;;;;;;;;;;;;6.72;87.19;100876.05;1716063;82;21077;-65
2021/11/04 04:04:10;;;;;;;29.10;24.23;;;;;;;6.77;86.95;100871.14;1713345;83;20138;-66
2021/11/04 04:06:36;;;;;;;28.10;23.43;;;;;;;6.75;86.93;100864.66;1746902;82;21029;-65
2021/11/04 04:09:05;;;;;;;;;;;;;;;6.76;86.82;100861.52;1712812;83;21062;-66
2021/11/04 04:11:31;;;;;;;32.77;25.70;;;;;;;6.68;86.83;100859.62;1694816;84;20421;-66
2021/11/04 04:13:59;;;;;;;29.60;24.70;;;;;;;6.59;87.09;100847.27;1681245;84;21010;-66
2021/11/04 04:16:25;;;;;;;30.95;26.10;;;;;;;6.65;86.98;100850.66;1679898;84;21055;-66
2021/11/04 04:18:52;;;;;;;33.53;25.60;;;;;;;6.69;86.54;100842.75;1683037;84;21098;-65
2021/11/04 04:21:20;;;;;;;32.97;26.17;;;;;;;6.67;86.27;100834.59;1681642;84;21251;-65
2021/11/04 04:23:46;;;;;;;30.90;24.73;;;;;;;6.66;86.35;100836.92;1684590;84;21239;-65
2021/11/04 04:26:13;;;;;;;35.03;26.45;;;;;;;6.65;86.36;100840.06;1681135;84;21005;-65
2021/11/04 04:28:39;;;;;;;32.57;25.67;;;;;;;6.56;86.59;100847.09;1683474;84;21009;-63
2021/11/04 04:31:06;;;;;;;29.60;22.80;;;;;;;6.50;86.85;100849.48;1684715;84;21062;-65
2021/11/04 04:33:32;;;;;;;29.70;24.47;;;;;;;6.52;86.77;100845.72;1687104;83;21169;-65
2021/11/04 04:35:59;;;;;;;30.10;22.87;;;;;;;6.55;86.82;100853.85;1709448;82;21486;-65
2021/11/04 04:38:26;;;;;;;30.30;25.62;;;;;;;6.56;87.00;100859.50;1712913;82;21045;-65
2021/11/04 04:40:52;;;;;;;29.35;22.30;;;;;;;6.52;87.03;100852.34;1711949;82;21023;-65
2021/11/04 04:43:18;;;;;;;28.47;23.42;;;;;;;6.51;87.16;100855.97;1708113;82;21031;-66
2021/11/04 04:45:44;;;;;;;29.67;21.25;;;;;;;6.56;86.93;100852.38;1710408;82;21025;-65
2021/11/04 04:48:11;;;;;;;30.15;21.05;;;;;;;6.58;86.87;100851.73;1709206;82;22243;-66
2021/11/04 04:50:39;;;;;;;32.57;24.27;;;;;;;6.59;86.78;100849.45;1704639;82;21018;-66
2021/11/04 04:53:07;;;;;;;37.43;26.57;;;;;;;6.59;86.69;100841.97;1706897;82;20998;-65
2021/11/04 04:55:35;;;;;;;32.00;26.03;;;;;;;6.57;86.96;100850.09;1726686;81;21057;-64
2021/11/04 04:58:02;;;;;;;30.70;25.00;;;;;;;6.59;87.02;100848.59;1702190;83;20994;-65
2021/11/04 05:00:29;;;;;;;34.93;26.10;;;;;;;6.65;86.74;100845.83;1706561;81;20962;-66
2021/11/04 05:02:56;;;;;;;26.52;23.15;;;;;;;6.72;86.24;100851.70;1735177;81;20980;-65
2021/11/04 05:05:22;;;;;;;27.67;24.20;;;;;;;6.74;85.98;100847.11;1732116;81;20957;-64
2021/11/04 05:07:48;;;;;;;29.98;26.62;;;;;;;6.70;85.87;100832.98;1709758;82;21006;-64
2021/11/04 05:10:16;;;;;;;32.30;27.70;;;;;;;6.64;86.08;100838.39;1708934;82;21044;-64
2021/11/04 05:12:44;;;;;;;35.30;26.65;;;;;;;6.62;86.23;100830.59;1712182;82;21069;-64
2021/11/04 05:15:11;;;;;;;29.40;25.17;;;;;;;6.65;85.94;100829.94;1710007;82;21081;-64
2021/11/04 05:17:38;;;;;;;40.15;29.55;;;;;;;6.70;84.56;100831.66;1711953;82;21061;-64
2021/11/04 05:20:08;;;;;;;39.70;30.67;;;;;;;6.65;84.19;100830.80;1732487;81;21057;-65
2021/11/04 05:22:34;;;;;;;37.83;27.67;;;;;;;6.63;84.27;100839.39;1711951;82;20980;-65
2021/11/04 05:25:00;;;;;;;26.27;22.90;;;;;;;6.57;84.28;100834.67;1710823;82;21036;-63
2021/11/04 05:27:29;;;;;;;23.10;20.72;;;;;;;6.51;84.04;100832.12;1708570;82;21044;-65
2021/11/04 05:29:56;;;;;;;24.67;21.03;;;;;;;6.43;83.75;100834.20;1709123;82;21016;-64
2021/11/04 05:32:23;;;;;;;25.03;18.67;;;;;;;6.39;83.31;100845.25;1709764;82;21011;-64
2021/11/04 05:34:49;;;;;;;24.10;18.37;;;;;;;6.39;82.78;100842.10;1712610;82;21047;-67
2021/11/04 05:37:15;;;;;;;;;;;;;;;6.35;82.42;100852.66;1731306;81;20954;-65
2021/11/04 05:39:42;;;;;;;22.07;19.73;;;;;;;6.26;82.42;100864.13;1707963;82;20146;-67
2021/11/04 05:42:09;;;;;;;22.17;19.47;;;;;;;6.10;82.79;100857.30;1710068;82;20949;-64
2021/11/04 05:44:37;;;;;;;19.97;17.93;;;;;;;6.00;82.86;100853.38;1711619;81;21108;-67
2021/11/04 05:47:05;;;;;;;19.60;17.03;;;;;;;5.97;82.92;100853.66;1737734;81;21071;-65
2021/11/04 05:49:31;;;;;;;19.50;17.33;;;;;;;5.99;82.57;100845.94;1737499;81;21015;-67
2021/11/04 05:51:59;;;;;;;27.93;20.83;;;;;;;5.95;82.46;100855.59;1738479;81;21084;-65
2021/11/04 05:54:26;;;;;;;25.33;21.30;;;;;;;5.89;82.62;100847.74;1761057;80;21005;-66
2021/11/04 05:56:52;;;;;;;;;;;;;;;5.81;83.00;100849.80;1685099;81;21106;-66
2021/11/04 05:59:18;;;;;;;23.20;19.27;;;;;;;5.76;83.52;100856.00;1695183;84;20118;-65
2021/11/04 06:01:45;;;;;;;;;;;;;;;5.73;83.81;100858.13;1725693;82;21086;-65
2021/11/04 06:04:12;;;;;;;26.03;21.83;;;;;;;5.80;83.68;100856.55;1730163;82;20205;-64
2021/11/04 06:06:38;;;;;;;23.83;20.35;;;;;;;5.84;83.67;100860.10;1733560;82;21092;-66
2021/11/04 06:09:05;;;;;;;26.17;23.15;;;;;;;5.70;83.84;100845.17;1733238;82;21054;-67
2021/11/04 06:11:31;;;;;;;28.30;24.85;;;;;;;5.87;83.96;100879.30;1726417;82;22044;-64
2021/11/04 06:13:57;;;;;;;24.87;22.02;;;;;;;5.88;84.28;100875.66;1716062;83;21525;-66
2021/11/04 06:16:24;;;;;;;27.27;21.53;;;;;;;5.94;84.40;100875.11;1717354;83;21547;-66
2021/11/04 06:18:52;;;;;;;25.20;21.43;;;;;;;6.06;84.12;100886.38;1716938;83;21076;-66
2021/11/04 06:21:20;;;;;;;25.20;20.87;;;;;;;6.12;83.96;100889.28;1716236;83;21057;-65
2021/11/04 06:23:46;;;;;;;28.60;23.07;;;;;;;6.13;83.88;100891.43;1713841;82;21085;-68
2021/11/04 06:26:14;;;;;;;;;;;;;;;6.06;83.97;100898.28;1712498;83;21051;-68
2021/11/04 06:28:41;;;;;;;33.53;25.60;;;;;;;6.02;84.41;100906.50;1710631;83;20444;-66
2021/11/04 06:31:07;;;;;;;35.97;26.27;;;;;;;5.97;84.95;100904.80;1712066;83;21031;-67
2021/11/04 06:33:33;;;;;;;26.42;22.75;;;;;;;6.03;84.98;100909.50;1698616;83;21499;-67
2021/11/04 06:35:59;;;;;;;30.92;23.75;;;;;;;6.17;84.85;100903.39;1701615;83;21039;-63
2021/11/04 06:38:25;;;;;;;34.48;22.45;;;;;;;6.22;84.79;100903.80;1690626;83;21047;-64
2021/11/04 06:40:51;;;;;;;30.52;25.23;;;;;;;6.29;85.00;100919.45;1700790;83;20980;-65
2021/11/04 06:43:18;;;;;;;30.53;23.13;;;;;;;6.29;85.27;100922.09;1707617;83;20973;-64
2021/11/04 06:45:51;;;;;;;31.97;24.63;;;;;;;6.28;85.78;100915.11;1692265;82;21026;-65
2021/11/04 06:48:34;;;;;;;27.50;22.33;;;;;;;6.28;86.50;100905.02;1718681;82;21074;-66
2021/11/04 06:51:02;;;;;;;25.47;20.23;;;;;;;6.36;87.15;100905.94;1692855;83;20979;-65
2021/11/04 06:53:29;;;;;;;26.60;20.87;;;;;;;6.45;87.40;100920.12;1712209;82;20992;-65
2021/11/04 06:55:59;;;;;;;24.82;20.08;;;;;;;6.56;87.37;100909.83;1703442;82;21003;-66
2021/11/04 06:58:30;;;;;;;28.37;23.03;;;;;;;6.62;87.36;100906.08;1730439;81;21017;-67
2021/11/04 07:01:00;;;;;;;30.57;22.30;;;;;;;6.61;87.42;100900.92;1721794;81;21104;-72
2021/11/04 07:03:30;;;;;;;24.80;21.50;;;;;;;6.52;88.36;100900.02;1727965;81;21576;-71
2021/11/04 07:06:23;;;;;;;23.87;17.70;;;;;;;6.55;88.57;100895.73;1733702;81;21052;-70
2021/11/04 07:08:29;;;;;;;19.97;16.73;;;;;;;6.59;88.84;100893.16;1723748;81;21628;-70
2021/11/04 07:11:00;;;;;;;24.20;19.07;;;;;;;6.56;89.33;100888.14;1731060;81;21009;-71
2021/11/04 07:13:30;;;;;;;22.57;17.07;;;;;;;6.53;89.78;100888.42;1729066;81;20989;-70
2021/11/04 07:17:16;;;;;;;31.80;20.77;;;;;;;6.68;89.80;100888.76;1775196;79;22959;-73
2021/11/04 07:19:47;;;;;;;22.48;19.48;;;;;;;6.66;89.97;100888.08;1746022;80;20982;-71
2021/11/04 07:22:34;;;;;;;29.33;20.53;;;;;;;6.62;90.03;100881.41;1743790;80;21142;-72
2021/11/04 07:25:10;;;;;;;22.57;19.13;;;;;;;6.70;89.87;100864.27;1698943;83;21028;-70
2021/11/04 07:28:07;;;;;;;25.10;19.67;;;;;;;6.75;90.03;100862.52;1703909;83;21048;-71
2021/11/04 07:30:34;;;;;;;23.03;18.53;;;;;;;6.83;90.11;100871.86;1694945;83;21108;-70
2021/11/04 07:33:06;;;;;;;24.65;19.90;;;;;;;6.92;90.18;100866.16;1699442;83;21127;-70
2021/11/04 07:35:37;;;;;;;22.47;18.27;;;;;;;6.96;90.14;100854.26;1690870;83;21014;-71
2021/11/04 07:38:08;;;;;;;28.23;22.03;;;;;;;7.04;90.12;100855.64;1675029;83;21560;-70
2021/11/04 07:40:34;;;;;;;31.33;21.93;;;;;;;7.08;90.38;100857.00;1700091;83;21072;-72
2021/11/04 07:43:01;;;;;;;30.77;21.23;;;;;;;7.19;90.24;100845.33;1700031;83;20985;-71
2021/11/04 07:45:30;;;;;;;25.95;20.62;;;;;;;7.27;89.99;100845.88;1695331;82;21622;-69
2021/11/04 07:47:57;;;;;;;42.37;27.47;;;;;;;7.37;89.95;100843.48;1697469;83;20973;-72
2021/11/04 07:50:27;;;;;;;42.55;28.00;;;;;;;7.46;89.87;100839.55;1701788;83;21516;-70
2021/11/04 07:52:54;;;;;;;52.47;27.47;;;;;;;7.53;89.28;100839.27;1695737;83;21496;-72
2021/11/04 07:55:20;;;;;;;41.08;25.70;;;;;;;7.64;88.75;100832.88;1680134;80;21576;-69
2021/11/04 07:57:47;;;;;;;36.90;25.87;;;;;;;7.75;88.42;100841.91;1672415;84;21032;-70
2021/11/04 08:00:17;;;;;;;33.00;22.00;;;;;;;7.89;88.30;100839.14;1670454;83;21099;-70
2021/11/04 08:02:44;;;;;;;33.73;22.77;;;;;;;8.02;87.19;100852.81;1688117;83;21024;-69
2021/11/04 08:05:14;;;;;;;30.30;21.83;;;;;;;7.98;86.95;100841.67;1695481;83;21588;-70
2021/11/04 08:07:42;;;;;;;29.33;20.57;;;;;;;7.95;87.03;100847.31;1689709;83;21515;-71
2021/11/04 08:10:13;;;;;;;;;;;;;;;8.09;87.12;100858.33;1687474;83;21528;-70
2021/11/04 08:12:39;;;;;;;32.13;22.57;;;;;;;8.18;86.72;100848.08;1669097;83;20134;-71
2021/11/04 08:15:09;;;;;;;33.60;23.27;;;;;;;8.24;86.65;100840.79;1661971;84;21157;-70
2021/11/04 08:17:37;;;;;;;36.90;23.20;;;;;;;8.35;86.45;100845.81;1656514;84;21664;-69
2021/11/04 08:20:05;;;;;;;;;;;;;;;8.39;85.99;100846.32;1659517;84;21775;-71
2021/11/04 08:22:32;;;;;;;26.77;21.60;;;;;;;8.43;86.00;100851.67;1655974;84;20185;-70
2021/11/04 08:25:00;;;;;;;28.90;22.03;;;;;;;8.51;85.96;100858.83;1648433;84;21055;-69
2021/11/04 08:27:27;;;;;;;30.97;21.45;;;;;;;8.66;85.89;100849.23;1641714;84;21057;-71
2021/11/04 08:29:53;;;;;;;26.95;21.82;;;;;;;8.79;85.42;100844.77;1642368;84;21131;-70
2021/11/04 08:32:21;;;;;;;24.93;21.50;;;;;;;8.85;85.25;100855.24;1634982;84;21031;-72
2021/11/04 08:34:47;;;;;;;20.50;18.32;;;;;;;8.88;84.99;100850.94;1616265;84;21067;-70
2021/11/04 08:37:13;;;;;;;21.55;19.35;;;;;;;9.04;84.62;100838.99;1612265;87;21149;-70
2021/11/04 08:39:40;;;;;;;28.45;21.52;;;;;;;9.16;84.15;100832.84;1590997;88;21141;-70
2021/11/04 08:42:07;;;;;;;23.62;21.12;;;;;;;9.23;83.98;100823.19;1588124;88;21518;-71
2021/11/04 08:44:34;;;;;;;22.17;19.40;;;;;;;9.24;84.12;100820.84;1599353;85;21553;-69
2021/11/04 08:47:02;;;;;;;26.07;21.00;;;;;;;9.35;84.01;100818.34;1653080;85;21150;-70
2021/11/04 08:49:30;;;;;;;27.40;23.10;;;;;;;9.49;83.62;100816.34;1643841;85;20987;-71
2021/11/04 08:51:56;;;;;;;25.93;22.57;;;;;;;9.59;83.45;100807.31;1634243;85;21145;-70
2021/11/04 08:54:24;;;;;;;25.43;22.70;;;;;;;9.71;83.41;100815.28;1630114;86;21063;-71
2021/11/04 08:56:52;;;;;;;23.77;21.27;;;;;;;9.75;83.01;100802.77;1618380;82;21061;-70
2021/11/04 08:59:19;;;;;;;23.57;19.53;;;;;;;9.94;83.02;100804.70;1608836;87;21051;-71
2021/11/04 09:01:46;;;;;;;22.13;19.97;;;;;;;10.18;82.33;100811.77;1655855;84;21010;-71
2021/11/04 09:04:12;;;;;;;21.80;19.70;;;;;;;10.36;81.43;100812.88;1654811;84;21051;-70
2021/11/04 09:06:41;;;;;;;21.70;17.65;;;;;;;10.45;80.78;100810.98;1662315;85;20994;-71
2021/11/04 09:09:12;;;;;;;21.23;19.03;;;;;;;10.50;80.09;100808.62;1659280;85;21337;-70
2021/11/04 09:11:39;;;;;;;19.23;17.00;;;;;;;10.61;80.16;100812.73;1644323;85;21689;-70
2021/11/04 09:14:06;;;;;;;22.00;19.55;;;;;;;10.78;79.84;100801.45;1637707;86;21102;-71
2021/11/04 09:16:35;;;;;;;22.63;20.23;;;;;;;10.87;79.22;100801.20;1616206;87;21090;-71
2021/11/04 09:19:01;;;;;;;21.50;19.23;;;;;;;10.83;79.04;100806.57;1589714;88;21034;-70
2021/11/04 09:21:28;;;;;;;23.13;18.60;;;;;;;10.86;79.23;100803.53;1621754;86;21027;-70
2021/11/04 09:23:55;;;;;;;21.12;18.92;;;;;;;10.84;79.04;100806.06;1631110;84;21088;-71
2021/11/04 09:26:21;;;;;;;22.27;19.87;;;;;;;10.89;79.24;100798.36;1630177;86;21026;-70
2021/11/04 09:28:48;;;;;;;25.13;22.23;;;;;;;10.88;79.32;100801.51;1641630;86;21044;-70
2021/11/04 09:31:14;;;;;;;21.68;19.42;;;;;;;10.84;79.67;100808.73;1642479;86;21048;-71
2021/11/04 09:33:42;;;;;;;26.23;23.33;;;;;;;10.84;79.73;100800.21;1640761;86;21036;-70
2021/11/04 09:36:09;;;;;;;24.63;19.67;;;;;;;10.90;79.73;100796.00;1604648;86;21627;-69
2021/11/04 09:38:36;;;;;;;29.77;23.87;;;;;;;10.95;79.86;100798.97;1637422;86;21587;-70
2021/11/04 09:41:02;;;;;;;24.18;21.62;;;;;;;10.98;79.96;100799.95;1625395;86;21119;-69
2021/11/04 09:43:31;;;;;;;23.83;21.35;;;;;;;11.13;80.06;100791.14;1639117;86;21049;-71
2021/11/04 09:46:01;;;;;;;23.67;21.20;;;;;;;11.32;79.54;100785.30;1626103;86;21075;-70
2021/11/04 09:48:30;;;;;;;26.07;23.23;;;;;;;11.45;78.63;100792.66;1637499;86;21042;-71
2021/11/04 09:50:57;;;;;;;25.00;22.40;;;;;;;11.56;78.29;100779.37;1621081;86;21094;-70
2021/11/04 09:53:25;;;;;;;26.12;22.58;;;;;;;11.59;78.12;100790.52;1623523;86;21006;-70
2021/11/04 09:55:51;;;;;;;22.17;19.90;;;;;;;11.71;78.07;100779.37;1631930;86;21034;-69
2021/11/04 09:58:18;;;;;;;25.52;23.02;;;;;;;11.86;77.67;100789.53;1614222;86;21169;-71
2021/11/04 10:00:44;;;;;;;26.27;23.52;;;;;;;11.97;77.33;100777.58;1642716;85;21064;-71
2021/11/04 10:03:14;;;;;;;27.77;24.43;;;;;;;11.99;77.29;100779.56;1651952;85;21033;-69
2021/11/04 10:05:52;;;;;;;30.12;24.05;;;;;;;11.97;76.76;100777.58;1648497;85;21087;-71
2021/11/04 10:08:35;;;;;;;29.87;25.20;;;;;;;11.62;76.71;100711.87;1645778;86;21023;-71
2021/11/04 10:11:13;;;;;;;25.95;23.30;;;;;;;12.04;76.69;100762.47;1648832;85;22170;-70
2021/11/04 10:13:42;;;;;;;26.35;23.07;;;;;;;12.11;76.54;100758.52;1650466;85;21045;-71
2021/11/04 10:16:11;;;;;;;27.17;21.57;;;;;;;12.05;76.80;100766.30;1651150;85;21109;-71
2021/11/04 10:18:43;;;;;;;31.20;25.68;;;;;;;11.98;76.53;100764.05;1639030;85;21511;-72
2021/11/04 10:21:09;;;;;;;28.38;23.95;;;;;;;12.03;76.42;100758.95;1637815;85;21019;-71
2021/11/04 10:23:43;;;;;;;28.05;24.72;;;;;;;12.07;76.16;100744.70;1648635;82;21011;-70
2021/11/04 10:26:18;;;;;;;24.55;21.77;;;;;;;12.04;76.24;100730.41;1637565;85;20998;-71
2021/11/04 10:28:47;;;;;;;22.58;19.17;;;;;;;12.03;76.45;100733.56;1637141;85;21067;-71
2021/11/04 10:31:20;;;;;;;22.25;19.45;;;;;;;12.16;76.17;100728.06;1642607;85;21004;-71
2021/11/04 10:33:52;;;;;;;22.20;19.62;;;;;;;12.23;75.21;100728.97;1646879;84;21536;-71
2021/11/04 10:36:22;;;;;;;24.35;19.85;;;;;;;12.30;75.39;100730.35;1656983;84;21048;-72
2021/11/04 10:38:56;;;;;;;20.48;18.30;;;;;;;12.33;75.24;100742.02;1668579;84;20992;-71
2021/11/04 10:41:32;;;;;;;19.23;17.32;;;;;;;12.45;75.11;100740.48;1657225;84;21000;-71
2021/11/04 10:44:10;;;;;;;22.07;19.55;;;;;;;12.55;74.89;100735.66;1653492;84;21075;-71
2021/11/04 10:46:46;;;;;;;21.65;19.37;;;;;;;12.56;74.97;100733.80;1665924;84;21062;-71
2021/11/04 10:49:14;;;;;;;20.62;18.62;;;;;;;12.53;75.31;100754.26;1657902;84;21048;-71
2021/11/04 10:51:42;;;;;;;18.85;17.02;;;;;;;12.55;75.25;100722.28;1665449;84;21123;-73
2021/11/04 10:54:13;;;;;;;21.12;17.73;;;;;;;12.65;75.16;100720.62;1656071;85;21005;-71
2021/11/04 10:56:42;;;;;;;21.95;19.75;;;;;;;12.70;74.69;100714.70;1667357;84;21053;-70
2021/11/04 10:59:17;;;;;;;24.95;21.12;;;;;;;12.64;74.67;100710.44;1667474;85;21021;-70
2021/11/04 11:01:50;;;;;;;26.33;20.55;;;;;;;12.66;74.89;100707.06;1657482;84;21139;-71
2021/11/04 11:04:22;;;;;;;21.90;19.70;;;;;;;12.77;74.69;100703.53;1667709;84;21087;-71
2021/11/04 11:06:55;;;;;;;22.85;20.45;;;;;;;12.90;74.09;100689.43;1639918;85;21106;-71
2021/11/04 11:09:26;;;;;;;22.30;18.25;;;;;;;12.94;73.40;100689.34;1659746;85;21470;-71
2021/11/04 11:11:56;;;;;;;18.65;16.70;;;;;;;12.91;72.40;100680.39;1642598;85;21006;-70
2021/11/04 11:14:23;;;;;;;19.27;17.20;;;;;;;12.87;71.74;100681.30;1630574;85;21165;-71
2021/11/04 11:16:55;;;;;;;16.93;15.23;;;;;;;12.88;71.83;100680.25;1629115;85;21076;-71
2021/11/04 11:19:25;;;;;;;16.77;14.98;;;;;;;12.95;71.42;100667.75;1636790;85;21037;-71
2021/11/04 11:21:52;;;;;;;21.07;17.60;;;;;;;13.05;71.25;100672.75;1633802;85;20986;-70
2021/11/04 11:24:36;;;;;;;19.42;17.30;;;;;;;13.11;71.76;100677.34;1648271;85;21601;-70